sensor_id;sensor_type;location;lat;lon;timestamp;pressure;altitude;pressure_sealevel;temperature;humidity
50550;BME280;36505;52.512;13.460;2023-06-22T00:01:09;101355.13;;;21.61;66.15
50550;BME280;36505;52.512;13.460;2023-06-22T00:03:35;101368.53;;;21.59;66.23
50550;BME280;36505;52.512;13.460;2023-06-22T00:06:00;101370.28;;;21.55;66.24
50550;BME280;36505;52.512;13.460;2023-06-22T00:08:25;101364.47;;;21.52;66.51
50550;BME280;36505;52.512;13.460;2023-06-22T00:10:51;101369.84;;;21.48;66.57
50550;BME280;36505;52.512;13.460;2023-06-22T00:13:16;101369.00;;;21.48;66.37
50550;BME280;36505;52.512;13.460;2023-06-22T00:15:43;101368.78;;;21.44;66.61
50550;BME280;36505;52.512;13.460;2023-06-22T00:18:10;101376.31;;;21.44;66.70
50550;BME280;36505;52.512;13.460;2023-06-22T00:20:36;101369.69;;;21.40;66.97
50550;BME280;36505;52.512;13.460;2023-06-22T00:23:06;101371.34;;;21.41;66.93
50550;BME280;36505;52.512;13.460;2023-06-22T00:25:40;101381.38;;;21.42;67.26
50550;BME280;36505;52.512;13.460;2023-06-22T00:28:06;101393.63;;;21.41;67.20
50550;BME280;36505;52.512;13.460;2023-06-22T00:30:32;101396.72;;;21.39;67.25
50550;BME280;36505;52.512;13.460;2023-06-22T00:32:57;101392.91;;;21.35;67.29
50550;BME280;36505;52.512;13.460;2023-06-22T00:35:23;101385.22;;;21.27;67.88
50550;BME280;36505;52.512;13.460;2023-06-22T00:37:54;101383.00;;;21.24;67.95
50550;BME280;36505;52.512;13.460;2023-06-22T00:40:25;101391.44;;;21.19;68.05
50550;BME280;36505;52.512;13.460;2023-06-22T00:42:51;101401.47;;;21.20;68.32
50550;BME280;36505;52.512;13.460;2023-06-22T00:45:16;101406.72;;;21.21;68.47
50550;BME280;36505;52.512;13.460;2023-06-22T00:47:42;101397.56;;;21.21;68.61
50550;BME280;36505;52.512;13.460;2023-06-22T00:50:09;101398.13;;;21.18;68.69
50550;BME280;36505;52.512;13.460;2023-06-22T00:52:38;101399.78;;;21.19;68.68
50550;BME280;36505;52.512;13.460;2023-06-22T00:55:08;101384.38;;;21.03;69.03
50550;BME280;36505;52.512;13.460;2023-06-22T00:57:34;101393.53;;;21.08;69.01
50550;BME280;36505;52.512;13.460;2023-06-22T01:00:03;101400.50;;;21.06;69.21
50550;BME280;36505;52.512;13.460;2023-06-22T01:02:31;101398.00;;;21.04;69.42
50550;BME280;36505;52.512;13.460;2023-06-22T01:04:57;101404.78;;;20.98;69.72
50550;BME280;36505;52.512;13.460;2023-06-22T01:07:35;101406.25;;;20.90;69.83
50550;BME280;36505;52.512;13.460;2023-06-22T01:10:22;101400.69;;;20.90;70.40
50550;BME280;36505;52.512;13.460;2023-06-22T01:12:52;101405.44;;;20.90;70.34
50550;BME280;36505;52.512;13.460;2023-06-22T01:15:27;101409.34;;;20.89;70.89
50550;BME280;36505;52.512;13.460;2023-06-22T01:17:56;101410.44;;;20.88;71.03
50550;BME280;36505;52.512;13.460;2023-06-22T01:20:23;101413.84;;;20.85;71.60
50550;BME280;36505;52.512;13.460;2023-06-22T01:23:11;101417.53;;;20.80;71.70
50550;BME280;36505;52.512;13.460;2023-06-22T01:29:01;101417.06;;;20.73;72.19
50550;BME280;36505;52.512;13.460;2023-06-22T01:31:29;101418.72;;;20.74;72.50
50550;BME280;36505;52.512;13.460;2023-06-22T01:34:02;101417.56;;;20.75;72.34
50550;BME280;36505;52.512;13.460;2023-06-22T01:36:29;101414.78;;;20.75;72.43
50550;BME280;36505;52.512;13.460;2023-06-22T01:38:56;101421.50;;;20.74;72.49
50550;BME280;36505;52.512;13.460;2023-06-22T01:41:25;101424.88;;;20.71;73.35
50550;BME280;36505;52.512;13.460;2023-06-22T01:43:52;101422.16;;;20.66;73.35
50550;BME280;36505;52.512;13.460;2023-06-22T01:46:18;101431.91;;;20.64;73.48
50550;BME280;36505;52.512;13.460;2023-06-22T01:48:46;101424.69;;;20.63;73.32
50550;BME280;36505;52.512;13.460;2023-06-22T01:51:12;101426.06;;;20.65;73.60
50550;BME280;36505;52.512;13.460;2023-06-22T01:53:37;101427.72;;;20.66;73.61
50550;BME280;36505;52.512;13.460;2023-06-22T01:56:03;101433.56;;;20.65;73.80
50550;BME280;36505;52.512;13.460;2023-06-22T01:58:30;101428.91;;;20.60;74.55
50550;BME280;36505;52.512;13.460;2023-06-22T02:01:18;101425.84;;;20.57;74.17
50550;BME280;36505;52.512;13.460;2023-06-22T02:03:59;101432.81;;;20.54;74.73
50550;BME280;36505;52.512;13.460;2023-06-22T02:06:36;101426.75;;;20.52;74.63
50550;BME280;36505;52.512;13.460;2023-06-22T02:09:08;101432.38;;;20.47;75.10
50550;BME280;36505;52.512;13.460;2023-06-22T02:11:34;101428.50;;;20.43;75.18
50550;BME280;36505;52.512;13.460;2023-06-22T02:14:00;101435.47;;;20.40;75.54
50550;BME280;36505;52.512;13.460;2023-06-22T02:16:26;101429.13;;;20.40;75.46
50550;BME280;36505;52.512;13.460;2023-06-22T02:18:55;101424.94;;;20.37;75.66
50550;BME280;36505;52.512;13.460;2023-06-22T02:21:21;101438.56;;;20.39;75.71
50550;BME280;36505;52.512;13.460;2023-06-22T02:23:46;101438.59;;;20.34;76.10
50550;BME280;36505;52.512;13.460;2023-06-22T02:26:12;101452.50;;;20.34;76.09
50550;BME280;36505;52.512;13.460;2023-06-22T02:28:38;101443.06;;;20.30;76.55
50550;BME280;36505;52.512;13.460;2023-06-22T02:31:03;101446.41;;;20.32;76.67
50550;BME280;36505;52.512;13.460;2023-06-22T02:33:29;101446.38;;;20.37;76.62
50550;BME280;36505;52.512;13.460;2023-06-22T02:35:55;101450.81;;;20.38;76.76
50550;BME280;36505;52.512;13.460;2023-06-22T02:38:20;101451.66;;;20.38;76.92
50550;BME280;36505;52.512;13.460;2023-06-22T02:40:46;101451.94;;;20.37;77.30
50550;BME280;36505;52.512;13.460;2023-06-22T02:43:12;101449.16;;;20.37;77.22
50550;BME280;36505;52.512;13.460;2023-06-22T02:45:38;101452.22;;;20.35;77.11
50550;BME280;36505;52.512;13.460;2023-06-22T02:48:04;101441.38;;;20.34;77.63
50550;BME280;36505;52.512;13.460;2023-06-22T02:50:29;101442.25;;;20.29;77.90
50550;BME280;36505;52.512;13.460;2023-06-22T02:52:55;101446.97;;;20.29;78.37
50550;BME280;36505;52.512;13.460;2023-06-22T02:55:20;101440.06;;;20.26;78.51
50550;BME280;36505;52.512;13.460;2023-06-22T02:57:45;101445.31;;;20.28;78.06
50550;BME280;36505;52.512;13.460;2023-06-22T03:00:13;101457.28;;;20.33;78.10
50550;BME280;36505;52.512;13.460;2023-06-22T03:02:47;101453.06;;;20.36;77.79
50550;BME280;36505;52.512;13.460;2023-06-22T03:05:13;101443.03;;;20.35;78.02
50550;BME280;36505;52.512;13.460;2023-06-22T03:07:42;101446.66;;;20.35;77.97
50550;BME280;36505;52.512;13.460;2023-06-22T03:10:12;101447.50;;;20.31;77.46
50550;BME280;36505;52.512;13.460;2023-06-22T03:12:38;101437.56;;;20.25;77.18
50550;BME280;36505;52.512;13.460;2023-06-22T03:15:09;101448.34;;;20.31;77.02
50550;BME280;36505;52.512;13.460;2023-06-22T03:17:35;101446.41;;;20.32;76.36
50550;BME280;36505;52.512;13.460;2023-06-22T03:20:02;101449.72;;;20.34;75.91
50550;BME280;36505;52.512;13.460;2023-06-22T03:22:34;101449.72;;;20.34;75.79
50550;BME280;36505;52.512;13.460;2023-06-22T03:24:59;101446.16;;;20.33;75.66
50550;BME280;36505;52.512;13.460;2023-06-22T03:27:25;101441.38;;;20.34;75.13
50550;BME280;36505;52.512;13.460;2023-06-22T03:29:50;101446.66;;;20.35;74.61
50550;BME280;36505;52.512;13.460;2023-06-22T03:32:15;101453.34;;;20.34;74.27
50550;BME280;36505;52.512;13.460;2023-06-22T03:34:41;101438.88;;;20.32;74.71
50550;BME280;36505;52.512;13.460;2023-06-22T03:37:15;101443.63;;;20.27;74.71
50550;BME280;36505;52.512;13.460;2023-06-22T03:39:41;101438.63;;;20.29;74.97
50550;BME280;36505;52.512;13.460;2023-06-22T03:42:07;101446.97;;;20.29;74.98
50550;BME280;36505;52.512;13.460;2023-06-22T03:44:32;101444.19;;;20.29;74.62
50550;BME280;36505;52.512;13.460;2023-06-22T03:46:58;101455.56;;;20.32;74.28
50550;BME280;36505;52.512;13.460;2023-06-22T03:49:23;101456.94;;;20.35;73.98
50550;BME280;36505;52.512;13.460;2023-06-22T03:51:48;101448.09;;;20.33;73.39
50550;BME280;36505;52.512;13.460;2023-06-22T03:54:14;101445.84;;;20.30;72.70
50550;BME280;36505;52.512;13.460;2023-06-22T03:56:39;101450.88;;;20.33;72.34
50550;BME280;36505;52.512;13.460;2023-06-22T03:59:04;101450.81;;;20.38;71.95
50550;BME280;36505;52.512;13.460;2023-06-22T04:01:30;101451.38;;;20.40;71.70
50550;BME280;36505;52.512;13.460;2023-06-22T04:03:55;101440.81;;;20.37;70.61
50550;BME280;36505;52.512;13.460;2023-06-22T04:06:20;101445.53;;;20.36;70.47
50550;BME280;36505;52.512;13.460;2023-06-22T04:08:47;101454.72;;;20.37;69.70
50550;BME280;36505;52.512;13.460;2023-06-22T04:11:17;101451.41;;;20.30;69.70
50550;BME280;36505;52.512;13.460;2023-06-22T04:13:43;101452.50;;;20.34;69.71
50550;BME280;36505;52.512;13.460;2023-06-22T04:16:08;101459.16;;;20.38;69.45
50550;BME280;36505;52.512;13.460;2023-06-22T04:18:34;101460.78;;;20.44;68.92
50550;BME280;36505;52.512;13.460;2023-06-22T04:20:59;101460.19;;;20.47;68.83
50550;BME280;36505;52.512;13.460;2023-06-22T04:23:24;101450.69;;;20.48;68.50
50550;BME280;36505;52.512;13.460;2023-06-22T04:25:50;101460.66;;;20.54;67.38
50550;BME280;36505;52.512;13.460;2023-06-22T04:28:16;101474.06;;;20.52;67.08
50550;BME280;36505;52.512;13.460;2023-06-22T04:30:41;101470.44;;;20.52;66.83
50550;BME280;36505;52.512;13.460;2023-06-22T04:33:15;101477.91;;;20.56;66.98
50550;BME280;36505;52.512;13.460;2023-06-22T04:35:40;101474.00;;;20.57;66.61
50550;BME280;36505;52.512;13.460;2023-06-22T04:38:09;101477.19;;;20.69;66.90
50550;BME280;36505;52.512;13.460;2023-06-22T04:40:34;101474.66;;;20.73;66.64
50550;BME280;36505;52.512;13.460;2023-06-22T04:42:59;101483.84;;;20.73;66.47
50550;BME280;36505;52.512;13.460;2023-06-22T04:45:28;101487.75;;;20.72;66.38
50550;BME280;36505;52.512;13.460;2023-06-22T04:47:54;101486.94;;;20.72;65.65
50550;BME280;36505;52.512;13.460;2023-06-22T04:50:19;101480.41;;;20.81;65.88
50550;BME280;36505;52.512;13.460;2023-06-22T04:52:46;101483.63;;;20.94;65.44
50550;BME280;36505;52.512;13.460;2023-06-22T04:55:12;101484.03;;;21.06;64.09
50550;BME280;36505;52.512;13.460;2023-06-22T04:57:37;101490.38;;;21.11;63.60
50550;BME280;36505;52.512;13.460;2023-06-22T05:00:05;101487.78;;;21.20;63.70
50550;BME280;36505;52.512;13.460;2023-06-22T05:02:40;101494.88;;;21.31;63.28
50550;BME280;36505;52.512;13.460;2023-06-22T05:05:06;101485.59;;;21.41;63.59
50550;BME280;36505;52.512;13.460;2023-06-22T05:07:35;101490.03;;;21.60;63.06
50550;BME280;36505;52.512;13.460;2023-06-22T05:10:01;101496.91;;;21.68;62.80
50550;BME280;36505;52.512;13.460;2023-06-22T05:12:27;101488.75;;;21.72;62.47
50550;BME280;36505;52.512;13.460;2023-06-22T05:14:54;101493.75;;;21.75;61.94
50550;BME280;36505;52.512;13.460;2023-06-22T05:17:19;101482.13;;;21.67;62.34
50550;BME280;36505;52.512;13.460;2023-06-22T05:19:45;101485.59;;;21.78;61.81
50550;BME280;36505;52.512;13.460;2023-06-22T05:22:16;101491.91;;;21.84;61.56
50550;BME280;36505;52.512;13.460;2023-06-22T05:24:42;101482.34;;;21.71;61.77
50550;BME280;36505;52.512;13.460;2023-06-22T05:27:08;101496.53;;;21.75;62.33
50550;BME280;36505;52.512;13.460;2023-06-22T05:29:33;101502.56;;;21.82;62.27
50550;BME280;36505;52.512;13.460;2023-06-22T05:31:59;101496.16;;;21.81;62.36
50550;BME280;36505;52.512;13.460;2023-06-22T05:34:24;101494.03;;;21.92;63.10
50550;BME280;36505;52.512;13.460;2023-06-22T05:36:49;101491.66;;;22.04;62.66
50550;BME280;36505;52.512;13.460;2023-06-22T05:39:15;101489.72;;;22.18;62.62
50550;BME280;36505;52.512;13.460;2023-06-22T05:41:40;101483.16;;;22.28;61.00
50550;BME280;36505;52.512;13.460;2023-06-22T05:44:06;101498.88;;;22.24;61.59
50550;BME280;36505;52.512;13.460;2023-06-22T05:46:32;101499.75;;;22.19;61.65
50550;BME280;36505;52.512;13.460;2023-06-22T05:48:57;101503.84;;;22.08;62.07
50550;BME280;36505;52.512;13.460;2023-06-22T05:51:23;101502.56;;;22.00;62.72
50550;BME280;36505;52.512;13.460;2023-06-22T05:53:48;101510.47;;;22.12;62.38
50550;BME280;36505;52.512;13.460;2023-06-22T05:56:15;101511.97;;;22.23;61.95
50550;BME280;36505;52.512;13.460;2023-06-22T05:58:41;101516.09;;;22.26;61.93
50550;BME280;36505;52.512;13.460;2023-06-22T06:01:06;101513.94;;;22.23;61.10
50550;BME280;36505;52.512;13.460;2023-06-22T06:03:32;101516.94;;;22.26;60.63
50550;BME280;36505;52.512;13.460;2023-06-22T06:05:57;101521.94;;;22.29;60.61
50550;BME280;36505;52.512;13.460;2023-06-22T06:08:22;101523.41;;;22.40;60.34
50550;BME280;36505;52.512;13.460;2023-06-22T06:10:48;101516.59;;;22.46;59.26
50550;BME280;36505;52.512;13.460;2023-06-22T06:13:13;101524.38;;;22.50;59.61
50550;BME280;36505;52.512;13.460;2023-06-22T06:15:39;101520.06;;;22.57;59.36
50550;BME280;36505;52.512;13.460;2023-06-22T06:18:05;101516.63;;;22.60;59.29
50550;BME280;36505;52.512;13.460;2023-06-22T06:20:31;101508.19;;;22.65;58.52
50550;BME280;36505;52.512;13.460;2023-06-22T06:22:57;101500.22;;;22.72;58.30
50550;BME280;36505;52.512;13.460;2023-06-22T06:25:22;101506.50;;;22.97;57.26
50550;BME280;36505;52.512;13.460;2023-06-22T06:27:50;101503.19;;;23.22;56.56
50550;BME280;36505;52.512;13.460;2023-06-22T06:30:17;101498.31;;;23.41;55.89
50550;BME280;36505;52.512;13.460;2023-06-22T06:32:44;101506.50;;;23.38;55.84
50550;BME280;36505;52.512;13.460;2023-06-22T06:35:12;101514.25;;;23.54;55.78
50550;BME280;36505;52.512;13.460;2023-06-22T06:37:41;101518.59;;;23.74;54.68
50550;BME280;36505;52.512;13.460;2023-06-22T06:40:08;101515.63;;;23.93;53.56
50550;BME280;36505;52.512;13.460;2023-06-22T06:42:38;101515.06;;;24.05;53.51
50550;BME280;36505;52.512;13.460;2023-06-22T06:45:07;101518.13;;;24.17;53.35
50550;BME280;36505;52.512;13.460;2023-06-22T06:47:33;101521.09;;;24.34;51.92
50550;BME280;36505;52.512;13.460;2023-06-22T06:49:58;101518.75;;;24.50;50.23
50550;BME280;36505;52.512;13.460;2023-06-22T06:52:25;101515.44;;;24.48;50.54
50550;BME280;36505;52.512;13.460;2023-06-22T06:54:50;101510.91;;;24.38;50.59
50550;BME280;36505;52.512;13.460;2023-06-22T06:57:17;101492.88;;;24.22;50.65
50550;BME280;36505;52.512;13.460;2023-06-22T06:59:43;101498.47;;;24.22;50.63
50550;BME280;36505;52.512;13.460;2023-06-22T07:02:08;101503.97;;;24.13;51.09
50550;BME280;36505;52.512;13.460;2023-06-22T07:04:34;101500.63;;;24.25;51.22
50550;BME280;36505;52.512;13.460;2023-06-22T07:07:01;101503.28;;;24.52;51.21
50550;BME280;36505;52.512;13.460;2023-06-22T07:09:27;101495.56;;;24.89;50.49
50550;BME280;36505;52.512;13.460;2023-06-22T07:11:52;101494.53;;;25.07;49.16
50550;BME280;36505;52.512;13.460;2023-06-22T07:14:18;101489.81;;;25.25;49.64
50550;BME280;36505;52.512;13.460;2023-06-22T07:16:43;101482.94;;;25.48;47.68
50550;BME280;36505;52.512;13.460;2023-06-22T07:19:11;101487.44;;;25.75;47.08
50550;BME280;36505;52.512;13.460;2023-06-22T07:21:37;101485.00;;;25.90;46.82
50550;BME280;36505;52.512;13.460;2023-06-22T07:24:02;101456.44;;;26.06;46.66
50550;BME280;36505;52.512;13.460;2023-06-22T07:26:28;101467.84;;;26.26;46.64
50550;BME280;36505;52.512;13.460;2023-06-22T07:28:53;101459.03;;;26.54;45.30
50550;BME280;36505;52.512;13.460;2023-06-22T07:31:18;101462.19;;;26.99;44.53
50550;BME280;36505;52.512;13.460;2023-06-22T07:33:44;101457.88;;;27.60;42.68
50550;BME280;36505;52.512;13.460;2023-06-22T07:36:09;101460.41;;;27.95;42.33
50550;BME280;36505;52.512;13.460;2023-06-22T07:38:35;101452.97;;;28.11;40.72
50550;BME280;36505;52.512;13.460;2023-06-22T07:41:01;101456.78;;;27.73;39.42
50550;BME280;36505;52.512;13.460;2023-06-22T07:43:27;101461.66;;;27.35;40.70
50550;BME280;36505;52.512;13.460;2023-06-22T07:45:55;101455.53;;;27.33;40.87
50550;BME280;36505;52.512;13.460;2023-06-22T07:48:20;101451.53;;;27.42;41.12
50550;BME280;36505;52.512;13.460;2023-06-22T07:50:46;101448.97;;;27.29;39.68
50550;BME280;36505;52.512;13.460;2023-06-22T07:53:12;101462.69;;;27.01;39.95
50550;BME280;36505;52.512;13.460;2023-06-22T07:55:37;101456.44;;;26.95;40.29
50550;BME280;36505;52.512;13.460;2023-06-22T07:58:02;101456.53;;;27.07;39.83
50550;BME280;36505;52.512;13.460;2023-06-22T08:00:28;101453.94;;;27.23;39.26
50550;BME280;36505;52.512;13.460;2023-06-22T08:02:53;101450.59;;;27.59;38.76
50550;BME280;36505;52.512;13.460;2023-06-22T08:05:19;101447.44;;;27.81;38.32
50550;BME280;36505;52.512;13.460;2023-06-22T08:07:44;101448.06;;;27.87;36.79
50550;BME280;36505;52.512;13.460;2023-06-22T08:10:11;101452.91;;;27.78;37.96
50550;BME280;36505;52.512;13.460;2023-06-22T08:12:36;101452.91;;;27.57;37.00
50550;BME280;36505;52.512;13.460;2023-06-22T08:15:02;101447.34;;;27.19;38.25
50550;BME280;36505;52.512;13.460;2023-06-22T08:17:28;101463.31;;;27.06;38.68
50550;BME280;36505;52.512;13.460;2023-06-22T08:19:53;101455.94;;;26.93;39.55
50550;BME280;36505;52.512;13.460;2023-06-22T08:22:19;101450.47;;;26.88;39.72
50550;BME280;36505;52.512;13.460;2023-06-22T08:24:44;101460.09;;;26.70;38.98
50550;BME280;36505;52.512;13.460;2023-06-22T08:27:10;101466.44;;;26.50;39.02
50550;BME280;36505;52.512;13.460;2023-06-22T08:29:40;101453.31;;;26.24;38.79
50550;BME280;36505;52.512;13.460;2023-06-22T08:32:10;101460.41;;;25.96;40.58
50550;BME280;36505;52.512;13.460;2023-06-22T08:34:36;101464.38;;;25.78;41.52
50550;BME280;36505;52.512;13.460;2023-06-22T08:37:01;101460.06;;;25.72;42.33
50550;BME280;36505;52.512;13.460;2023-06-22T08:39:31;101454.28;;;25.60;43.31
50550;BME280;36505;52.512;13.460;2023-06-22T08:41:57;101450.81;;;25.63;42.85
50550;BME280;36505;52.512;13.460;2023-06-22T08:44:22;101449.66;;;25.64;42.72
50550;BME280;36505;52.512;13.460;2023-06-22T08:46:47;101452.47;;;25.64;42.43
50550;BME280;36505;52.512;13.460;2023-06-22T08:49:13;101449.31;;;25.56;42.10
50550;BME280;36505;52.512;13.460;2023-06-22T08:51:38;101454.44;;;25.63;43.21
50550;BME280;36505;52.512;13.460;2023-06-22T08:54:03;101450.47;;;25.73;43.26
50550;BME280;36505;52.512;13.460;2023-06-22T08:56:30;101454.31;;;25.85;42.72
50550;BME280;36505;52.512;13.460;2023-06-22T08:58:55;101447.84;;;26.02;42.53
50550;BME280;36505;52.512;13.460;2023-06-22T09:01:21;101462.19;;;26.01;42.44
50550;BME280;36505;52.512;13.460;2023-06-22T09:03:47;101458.75;;;26.12;42.13
50550;BME280;36505;52.512;13.460;2023-06-22T09:06:20;101450.13;;;26.34;42.15
50550;BME280;36505;52.512;13.460;2023-06-22T09:08:46;101435.69;;;26.62;42.37
50550;BME280;36505;52.512;13.460;2023-06-22T09:11:12;101437.84;;;27.03;41.90
50550;BME280;36505;52.512;13.460;2023-06-22T09:13:37;101439.53;;;27.25;40.58
50550;BME280;36505;52.512;13.460;2023-06-22T09:16:03;101438.66;;;27.33;39.73
50550;BME280;36505;52.512;13.460;2023-06-22T09:18:28;101432.22;;;27.32;38.83
50550;BME280;36505;52.512;13.460;2023-06-22T09:20:53;101444.91;;;27.38;37.55
50550;BME280;36505;52.512;13.460;2023-06-22T09:23:19;101436.44;;;27.18;38.14
50550;BME280;36505;52.512;13.460;2023-06-22T09:25:44;101430.50;;;27.19;38.72
50550;BME280;36505;52.512;13.460;2023-06-22T09:28:12;101440.16;;;27.30;38.55
50550;BME280;36505;52.512;13.460;2023-06-22T09:30:37;101435.56;;;27.26;37.71
50550;BME280;36505;52.512;13.460;2023-06-22T09:33:02;101433.50;;;27.14;37.63
50550;BME280;36505;52.512;13.460;2023-06-22T09:35:28;101436.75;;;26.95;38.33
50550;BME280;36505;52.512;13.460;2023-06-22T09:37:53;101431.16;;;26.78;39.08
50550;BME280;36505;52.512;13.460;2023-06-22T09:40:18;101428.97;;;26.84;39.69
50550;BME280;36505;52.512;13.460;2023-06-22T09:42:45;101432.72;;;27.05;39.78
50550;BME280;36505;52.512;13.460;2023-06-22T09:45:10;101424.78;;;27.07;38.07
50550;BME280;36505;52.512;13.460;2023-06-22T09:47:36;101423.53;;;27.17;38.95
50550;BME280;36505;52.512;13.460;2023-06-22T09:50:02;101423.53;;;27.17;38.96
50550;BME280;36505;52.512;13.460;2023-06-22T09:52:27;101428.53;;;27.11;39.54
50550;BME280;36505;52.512;13.460;2023-06-22T09:54:52;101416.47;;;27.10;39.55
50550;BME280;36505;52.512;13.460;2023-06-22T09:57:18;101409.94;;;27.27;39.03
50550;BME280;36505;52.512;13.460;2023-06-22T09:59:43;101414.19;;;27.33;37.69
50550;BME280;36505;52.512;13.460;2023-06-22T10:02:09;101408.97;;;27.44;37.23
50550;BME280;36505;52.512;13.460;2023-06-22T10:04:35;101421.31;;;27.51;38.02
50550;BME280;36505;52.512;13.460;2023-06-22T10:07:01;101426.44;;;27.58;38.43
50550;BME280;36505;52.512;13.460;2023-06-22T10:09:26;101426.50;;;27.49;38.07
50550;BME280;36505;52.512;13.460;2023-06-22T10:11:52;101426.09;;;27.60;38.21
50550;BME280;36505;52.512;13.460;2023-06-22T10:14:17;101425.81;;;27.73;38.46
50550;BME280;36505;52.512;13.460;2023-06-22T10:16:43;101432.22;;;27.82;38.32
50550;BME280;36505;52.512;13.460;2023-06-22T10:19:08;101421.13;;;27.77;38.20
50550;BME280;36505;52.512;13.460;2023-06-22T10:21:34;101418.75;;;27.67;39.08
50550;BME280;36505;52.512;13.460;2023-06-22T10:23:59;101421.41;;;27.64;39.31
50550;BME280;36505;52.512;13.460;2023-06-22T10:26:33;101425.81;;;27.73;38.81
50550;BME280;36505;52.512;13.460;2023-06-22T10:28:59;101415.78;;;27.84;38.70
50550;BME280;36505;52.512;13.460;2023-06-22T10:31:25;101411.25;;;27.92;38.17
50550;BME280;36505;52.512;13.460;2023-06-22T10:33:50;101400.47;;;28.15;38.69
50550;BME280;36505;52.512;13.460;2023-06-22T10:36:16;101403.44;;;28.31;38.21
50550;BME280;36505;52.512;13.460;2023-06-22T10:38:41;101405.69;;;28.37;37.87
50550;BME280;36505;52.512;13.460;2023-06-22T10:41:06;101401.78;;;28.29;37.17
50550;BME280;36505;52.512;13.460;2023-06-22T10:43:32;101391.72;;;28.08;37.97
50550;BME280;36505;52.512;13.460;2023-06-22T10:45:57;101396.59;;;27.99;38.11
50550;BME280;36505;52.512;13.460;2023-06-22T10:48:23;101389.47;;;28.01;38.28
50550;BME280;36505;52.512;13.460;2023-06-22T10:50:48;101391.38;;;28.09;37.82
50550;BME280;36505;52.512;13.460;2023-06-22T10:53:13;101388.22;;;28.11;37.66
50550;BME280;36505;52.512;13.460;2023-06-22T10:55:39;101377.09;;;28.14;38.44
50550;BME280;36505;52.512;13.460;2023-06-22T10:58:04;101377.72;;;28.20;37.19
50550;BME280;36505;52.512;13.460;2023-06-22T11:00:30;101382.75;;;28.14;37.65
50550;BME280;36505;52.512;13.460;2023-06-22T11:02:55;101383.56;;;28.15;37.38
50550;BME280;36505;52.512;13.460;2023-06-22T11:05:20;101375.06;;;28.03;37.68
50550;BME280;36505;52.512;13.460;2023-06-22T11:07:46;101371.91;;;28.04;37.39
50550;BME280;36505;52.512;13.460;2023-06-22T11:10:12;101362.63;;;28.04;37.51
50550;BME280;36505;52.512;13.460;2023-06-22T11:12:38;101359.25;;;28.10;37.49
50550;BME280;36505;52.512;13.460;2023-06-22T11:15:04;101365.34;;;28.12;37.29
50550;BME280;36505;52.512;13.460;2023-06-22T11:17:29;101357.94;;;28.08;37.34
50550;BME280;36505;52.512;13.460;2023-06-22T11:19:55;101365.75;;;27.90;36.62
50550;BME280;36505;52.512;13.460;2023-06-22T11:22:20;101359.19;;;27.65;37.21
50550;BME280;36505;52.512;13.460;2023-06-22T11:24:45;101359.75;;;27.59;37.70
50550;BME280;36505;52.512;13.460;2023-06-22T11:27:11;101347.94;;;27.65;37.44
50550;BME280;36505;52.512;13.460;2023-06-22T11:29:36;101350.13;;;27.60;37.24
50550;BME280;36505;52.512;13.460;2023-06-22T11:32:04;101347.72;;;27.49;37.09
50550;BME280;36505;52.512;13.460;2023-06-22T11:34:29;101343.94;;;27.45;37.72
50550;BME280;36505;52.512;13.460;2023-06-22T11:36:55;101333.00;;;27.52;37.48
50550;BME280;36505;52.512;13.460;2023-06-22T11:39:20;101337.13;;;27.55;37.23
50550;BME280;36505;52.512;13.460;2023-06-22T11:41:45;101340.53;;;27.40;37.42
50550;BME280;36505;52.512;13.460;2023-06-22T11:44:11;101343.59;;;27.26;37.49
50550;BME280;36505;52.512;13.460;2023-06-22T11:46:36;101338.31;;;27.25;38.04
50550;BME280;36505;52.512;13.460;2023-06-22T11:49:02;101341.28;;;27.28;37.46
50550;BME280;36505;52.512;13.460;2023-06-22T11:51:27;101347.03;;;27.32;38.09
50550;BME280;36505;52.512;13.460;2023-06-22T11:53:53;101343.13;;;27.24;37.13
50550;BME280;36505;52.512;13.460;2023-06-22T11:56:19;101346.16;;;27.19;37.45
50550;BME280;36505;52.512;13.460;2023-06-22T11:58:44;101356.63;;;27.10;37.71
50550;BME280;36505;52.512;13.460;2023-06-22T12:01:09;101346.91;;;27.07;37.98
50550;BME280;36505;52.512;13.460;2023-06-22T12:03:35;101346.47;;;27.18;37.78
50550;BME280;36505;52.512;13.460;2023-06-22T12:06:00;101352.03;;;27.26;37.23
50550;BME280;36505;52.512;13.460;2023-06-22T12:08:26;101341.41;;;27.32;37.91
50550;BME280;36505;52.512;13.460;2023-06-22T12:10:51;101337.97;;;27.47;37.94
50550;BME280;36505;52.512;13.460;2023-06-22T12:13:17;101334.09;;;27.60;37.44
50550;BME280;36505;52.512;13.460;2023-06-22T12:15:42;101333.03;;;27.65;37.28
50550;BME280;36505;52.512;13.460;2023-06-22T12:18:08;101324.00;;;27.59;37.28
50550;BME280;36505;52.512;13.460;2023-06-22T12:20:34;101320.41;;;27.50;36.88
50550;BME280;36505;52.512;13.460;2023-06-22T12:22:59;101320.34;;;27.38;37.31
50550;BME280;36505;52.512;13.460;2023-06-22T12:25:25;101325.69;;;27.31;37.66
50550;BME280;36505;52.512;13.460;2023-06-22T12:27:50;101319.97;;;27.27;38.23
50550;BME280;36505;52.512;13.460;2023-06-22T12:30:16;101296.63;;;27.27;38.63
50550;BME280;36505;52.512;13.460;2023-06-22T12:32:41;101293.59;;;27.32;38.18
50550;BME280;36505;52.512;13.460;2023-06-22T12:35:07;101304.19;;;27.35;37.97
50550;BME280;36505;52.512;13.460;2023-06-22T12:37:37;101302.03;;;27.32;38.38
50550;BME280;36505;52.512;13.460;2023-06-22T12:40:02;101282.66;;;27.18;38.01